Time;durP1;ratioP1;P1;durP2;ratioP2;P2;SDS_P1;SDS_P2;PMS_P1;PMS_P2;Temp;Humidity;BMP_temperature;BMP_pressure;BME280_temperature;BME280_humidity;BME280_pressure;Samples;Min_cycle;Max_cycle;Signal;HPM_P1;HPM_P2
2020/12/12 00:00:40;;;;;;;54.73;33.73;;;;;;;5.50;63.22;99667.88;6124391;28;20251;-56
2020/12/12 00:04:01;;;;;;;51.63;29.90;;;;;;;5.69;62.87;99678.94;6123683;28;20264;-55
2020/12/12 00:07:21;;;;;;;49.57;30.67;;;;;;;5.72;62.68;99672.03;6117025;28;20594;-56
2020/12/12 00:10:41;;;;;;;54.50;33.97;;;;;;;5.82;62.37;99666.81;6124357;28;20236;-53
2020/12/12 00:14:02;;;;;;;56.23;34.50;;;;;;;5.53;62.87;99666.16;6122314;28;20318;-56
2020/12/12 00:17:22;;;;;;;55.93;34.47;;;;;;;5.62;63.06;99660.06;6123787;28;20405;-57
2020/12/12 00:20:43;;;;;;;51.73;30.60;;;;;;;5.64;62.73;99667.78;6122801;28;20838;-58
2020/12/12 00:24:04;;;;;;;54.90;32.23;;;;;;;5.57;62.63;99655.81;6109942;28;20224;-56
2020/12/12 00:27:25;;;;;;;54.00;32.43;;;;;;;5.56;62.88;99654.94;6100528;29;20240;-55
2020/12/12 00:30:45;;;;;;;55.90;33.63;;;;;;;5.68;62.64;99659.16;6112907;28;20236;-55
2020/12/12 00:34:05;;;;;;;47.47;30.73;;;;;;;5.67;61.87;99663.47;6099888;29;20316;-59
2020/12/12 00:37:27;;;;;;;51.70;33.47;;;;;;;5.60;62.08;99656.63;6116290;28;20613;-58
2020/12/12 00:40:56;;;;;;;58.03;33.70;;;;;;;5.58;62.54;99658.34;6106831;28;20458;-55
2020/12/12 00:44:17;;;;;;;58.20;33.73;;;;;;;5.67;62.09;99655.72;6121350;28;20504;-57
2020/12/12 00:47:39;;;;;;;56.97;32.33;;;;;;;5.51;62.75;99651.53;6112595;28;20220;-55
2020/12/12 00:50:59;;;;;;;53.80;31.70;;;;;;;5.25;63.00;99655.16;6111954;28;20235;-57
2020/12/12 00:54:20;;;;;;;55.13;32.67;;;;;;;5.49;62.77;99658.44;6129020;28;20240;-54
2020/12/12 00:57:41;;;;;;;51.37;32.47;;;;;;;5.39;62.81;99657.66;6108208;28;20486;-57
2020/12/12 01:01:01;;;;;;;51.47;33.70;;;;;;;5.23;63.11;99662.03;6105937;29;20614;-56
2020/12/12 01:04:21;;;;;;;57.53;35.53;;;;;;;5.50;62.77;99662.72;6119473;28;20499;-56
2020/12/12 01:07:42;;;;;;;63.17;37.70;;;;;;;5.41;62.77;99653.31;6114911;28;20231;-57
2020/12/12 01:11:03;;;;;;;58.30;33.60;;;;;;;5.52;62.30;99650.66;6128440;28;20244;-55
2020/12/12 01:14:24;;;;;;;58.30;33.33;;;;;;;5.30;62.95;99655.97;6119401;28;20241;-53
2020/12/12 01:17:45;;;;;;;60.40;36.57;;;;;;;5.20;62.99;99658.63;6101501;28;20567;-56
2020/12/12 01:21:06;;;;;;;53.63;35.57;;;;;;;5.30;63.19;99658.53;6097618;29;20308;-56
2020/12/12 01:24:26;;;;;;;51.60;32.07;;;;;;;5.40;62.64;99650.75;6110757;28;20232;-54
2020/12/12 01:27:47;;;;;;;57.77;34.90;;;;;;;5.59;61.76;99648.91;6095944;29;20248;-54
2020/12/12 01:31:11;;;;;;;55.27;34.67;;;;;;;5.19;63.17;99655.16;6112213;28;20224;-57
2020/12/12 01:34:31;;;;;;;50.27;32.17;;;;;;;5.14;63.29;99656.94;6106188;28;20231;-55
2020/12/12 01:37:51;;;;;;;59.90;35.80;;;;;;;5.16;63.38;99652.63;6119560;28;20317;-57
2020/12/12 01:41:12;;;;;;;51.23;33.47;;;;;;;5.37;62.82;99655.91;6119498;28;20783;-55
2020/12/12 01:44:33;;;;;;;55.13;35.07;;;;;;;5.32;63.00;99659.41;6127221;28;20231;-53
2020/12/12 01:47:53;;;;;;;55.63;35.27;;;;;;;5.38;62.62;99665.41;6118905;28;20291;-58
2020/12/12 01:51:14;;;;;;;53.53;32.87;;;;;;;5.44;62.34;99665.34;6121076;28;20633;-57
2020/12/12 01:54:35;;;;;;;49.17;30.90;;;;;;;5.30;62.73;99663.72;6127610;28;20235;-55
2020/12/12 01:57:55;;;;;;;49.30;32.07;;;;;;;5.38;62.96;99652.50;6109629;28;20236;-55
2020/12/12 02:01:20;;;;;;;56.00;34.97;;;;;;;5.43;62.49;99663.63;6124382;28;20662;-57
2020/12/12 02:04:46;;;;;;;49.87;33.67;;;;;;;5.51;62.14;99657.56;6127719;28;20243;-57
2020/12/12 02:08:09;;;;;;;48.27;33.20;;;;;;;5.44;62.50;99663.63;6113014;28;20235;-57
2020/12/12 02:11:30;;;;;;;50.47;32.07;;;;;;;5.42;62.34;99661.94;6124985;28;20223;-57
2020/12/12 02:14:50;;;;;;;51.13;32.50;;;;;;;5.32;62.29;99656.81;6119045;28;20307;-58
2020/12/12 02:18:19;;;;;;;43.47;30.40;;;;;;;5.33;62.80;99666.28;6119986;28;20226;-56
2020/12/12 02:21:40;;;;;;;45.60;31.57;;;;;;;5.18;62.38;99668.94;6107599;28;20243;-55
2020/12/12 02:25:00;;;;;;;53.53;35.33;;;;;;;5.17;62.84;99672.38;6099953;28;20403;-53
2020/12/12 02:28:22;;;;;;;44.80;30.10;;;;;;;5.10;63.37;99662.97;6099249;29;20236;-57
2020/12/12 02:31:44;;;;;;;51.03;31.57;;;;;;;5.16;62.75;99668.09;6117052;28;20228;-57
2020/12/12 02:35:05;;;;;;;54.60;32.47;;;;;;;5.36;62.19;99661.97;6118766;28;20235;-56
2020/12/12 02:38:26;;;;;;;50.30;31.43;;;;;;;5.46;62.17;99654.13;6122950;28;20326;-52
2020/12/12 02:41:47;;;;;;;49.73;32.37;;;;;;;5.26;62.48;99651.69;6105246;28;20235;-55
2020/12/12 02:45:07;;;;;;;49.07;32.83;;;;;;;5.38;62.45;99648.16;6101283;28;20232;-56
2020/12/12 02:48:29;;;;;;;53.20;33.20;;;;;;;5.15;62.52;99652.63;6099276;29;20235;-54
2020/12/12 02:51:51;;;;;;;48.47;30.80;;;;;;;5.12;62.80;99650.94;6098805;29;20232;-54
2020/12/12 02:55:12;;;;;;;48.67;34.60;;;;;;;4.93;63.28;99669.06;6114198;28;20264;-54
2020/12/12 02:58:32;;;;;;;49.27;32.67;;;;;;;5.03;62.65;99659.56;6121283;28;20548;-55
2020/12/12 03:01:53;;;;;;;52.17;32.60;;;;;;;5.10;63.39;99662.97;6099506;29;20232;-57
2020/12/12 03:05:14;;;;;;;48.37;31.80;;;;;;;5.25;62.77;99674.94;6121621;28;20227;-57
2020/12/12 03:08:34;;;;;;;49.77;33.90;;;;;;;5.12;62.82;99669.00;6113525;28;20236;-54
2020/12/12 03:11:56;;;;;;;50.83;32.97;;;;;;;5.14;63.07;99667.25;6108274;28;20621;-55
2020/12/12 03:15:16;;;;;;;47.40;34.30;;;;;;;5.11;62.57;99664.69;6124390;28;20807;-56
2020/12/12 03:18:36;;;;;;;45.73;30.07;;;;;;;5.15;62.57;99663.78;6124687;28;20621;-54
2020/12/12 03:21:56;;;;;;;45.10;30.80;;;;;;;5.25;62.47;99669.75;6125326;28;20779;-57
2020/12/12 03:25:17;;;;;;;48.47;31.47;;;;;;;5.40;61.92;99664.50;6101375;29;20244;-55
2020/12/12 03:28:38;;;;;;;51.87;33.27;;;;;;;5.36;62.32;99672.28;6117718;28;20674;-56
2020/12/12 03:31:59;;;;;;;48.97;32.17;;;;;;;5.18;62.90;99671.53;6092930;28;20240;-57
2020/12/12 03:35:19;;;;;;;50.17;32.80;;;;;;;5.17;62.64;99677.53;6116344;28;20244;-57
2020/12/12 03:38:40;;;;;;;48.13;33.43;;;;;;;5.08;63.00;99682.78;6091102;29;20231;-55
2020/12/12 03:42:01;;;;;;;47.90;32.13;;;;;;;4.84;63.37;99687.16;6098487;28;20323;-57
2020/12/12 03:45:22;;;;;;;56.00;36.73;;;;;;;4.88;63.25;99681.13;6136585;28;20236;-56
2020/12/12 03:48:43;;;;;;;54.00;33.23;;;;;;;4.72;63.59;99679.47;6127134;28;20239;-57
2020/12/12 03:52:03;;;;;;;49.67;33.60;;;;;;;4.89;63.21;99687.16;6115613;28;20236;-54
2020/12/12 03:55:23;;;;;;;51.97;31.30;;;;;;;5.00;63.27;99676.78;6135374;28;20235;-57
2020/12/12 03:58:44;;;;;;;53.37;32.60;;;;;;;5.11;62.39;99693.06;6127859;28;20223;-57
2020/12/12 04:02:05;;;;;;;49.03;33.33;;;;;;;4.66;63.34;99689.81;6114872;28;20322;-53
2020/12/12 04:05:26;;;;;;;49.97;32.33;;;;;;;4.43;64.10;99688.13;6118149;28;20228;-57
2020/12/12 04:08:46;;;;;;;46.40;31.67;;;;;;;4.60;64.31;99684.69;6127300;28;20238;-53
2020/12/12 04:12:06;;;;;;;56.47;33.30;;;;;;;4.48;64.72;99691.56;6114387;28;20235;-56
2020/12/12 04:15:27;;;;;;;49.83;33.00;;;;;;;4.67;64.26;99694.09;6131651;28;20235;-56
2020/12/12 04:18:48;;;;;;;48.00;31.83;;;;;;;4.91;62.78;99686.28;6128142;28;20777;-56
2020/12/12 04:22:08;;;;;;;51.90;33.83;;;;;;;5.05;62.96;99685.34;6104121;28;20327;-56
2020/12/12 04:25:29;;;;;;;57.63;37.17;;;;;;;4.93;63.00;99687.13;6135132;28;20326;-55
2020/12/12 04:28:49;;;;;;;57.43;34.80;;;;;;;4.74;63.14;99682.91;6127080;28;20239;-54
2020/12/12 04:32:10;;;;;;;59.43;34.53;;;;;;;4.85;63.66;99690.63;6094743;28;20228;-55
2020/12/12 04:35:32;;;;;;;55.03;35.27;;;;;;;4.91;63.24;99681.13;6134475;28;20232;-53
2020/12/12 04:38:52;;;;;;;53.90;34.23;;;;;;;5.14;62.34;99672.41;6109920;28;20331;-57
2020/12/12 04:42:15;;;;;;;51.63;34.77;;;;;;;4.95;62.88;99676.81;6099950;28;20370;-56
2020/12/12 04:45:37;;;;;;;57.97;35.30;;;;;;;5.04;62.87;99670.72;6121953;28;20647;-55
2020/12/12 04:48:58;;;;;;;58.73;38.43;;;;;;;4.92;63.31;99672.53;6123226;28;20642;-52
2020/12/12 04:52:21;;;;;;;56.27;37.20;;;;;;;5.06;63.02;99669.00;6122665;28;20626;-57
2020/12/12 04:55:45;;;;;;;53.53;32.37;;;;;;;5.03;62.63;99679.34;6113698;28;20236;-56
2020/12/12 04:59:06;;;;;;;59.73;37.10;;;;;;;4.90;63.20;99670.78;6122799;28;20236;-56
2020/12/12 05:02:26;;;;;;;50.33;31.90;;;;;;;4.81;63.72;99682.03;6119245;28;20240;-56
2020/12/12 05:05:47;;;;;;;52.37;35.33;;;;;;;5.11;62.56;99687.91;6115666;28;20232;-57
2020/12/12 05:09:09;;;;;;;58.77;35.87;;;;;;;5.21;62.23;99689.56;6122368;28;20227;-55
2020/12/12 05:12:29;;;;;;;54.50;34.03;;;;;;;5.12;62.57;99694.78;6112325;28;20231;-56
2020/12/12 05:15:51;;;;;;;52.73;35.13;;;;;;;4.88;62.69;99691.44;6104047;28;20233;-53
2020/12/12 05:19:13;;;;;;;51.63;33.57;;;;;;;4.70;63.89;99686.34;6120287;28;20227;-58
2020/12/12 05:22:34;;;;;;;52.90;34.00;;;;;;;4.87;63.44;99679.41;6117292;28;20236;-58
2020/12/12 05:25:57;;;;;;;51.80;36.97;;;;;;;4.82;63.74;99682.88;6099050;29;20602;-58
2020/12/12 05:29:18;;;;;;;64.03;36.73;;;;;;;5.16;62.37;99681.00;6113342;28;20608;-53
2020/12/12 05:32:38;;;;;;;53.40;34.60;;;;;;;5.18;62.58;99683.59;6109517;28;20240;-56
2020/12/12 05:35:58;;;;;;;53.33;33.23;;;;;;;5.10;62.14;99678.47;6112680;28;20239;-56
2020/12/12 05:39:19;;;;;;;56.93;33.47;;;;;;;4.93;63.28;99679.38;6097583;28;20247;-57
2020/12/12 05:42:43;;;;;;;55.33;34.40;;;;;;;5.15;62.42;99684.44;6114642;28;20232;-54
2020/12/12 05:46:03;;;;;;;53.67;34.23;;;;;;;5.41;61.63;99692.06;6122646;28;20239;-55
2020/12/12 05:49:24;;;;;;;58.83;35.80;;;;;;;5.32;61.63;99697.28;6099260;29;20256;-55
2020/12/12 05:52:46;;;;;;;53.70;35.23;;;;;;;5.19;62.27;99699.03;6121174;28;20247;-55
2020/12/12 05:56:06;;;;;;;55.87;37.00;;;;;;;5.31;62.01;99693.84;6121761;28;20228;-57
2020/12/12 05:59:28;;;;;;;50.63;34.17;;;;;;;5.27;61.76;99705.06;6112549;28;20232;-57
2020/12/12 06:02:53;;;;;;;56.40;39.67;;;;;;;5.13;62.74;99702.50;6113119;28;20871;-54
2020/12/12 06:06:18;;;;;;;53.80;36.43;;;;;;;4.84;63.11;99699.19;6122769;28;20228;-56
2020/12/12 06:09:47;;;;;;;53.27;34.40;;;;;;;5.13;62.66;99693.91;6100424;28;20598;-56
2020/12/12 06:13:08;;;;;;;50.13;32.50;;;;;;;4.87;63.03;99701.78;6120639;28;20326;-55
2020/12/12 06:16:30;;;;;;;50.93;34.20;;;;;;;4.93;63.24;99704.34;6121912;28;20232;-54
2020/12/12 06:19:51;;;;;;;52.77;33.23;;;;;;;5.28;62.38;99709.34;6121848;28;20255;-56
2020/12/12 06:23:13;;;;;;;59.17;37.60;;;;;;;4.88;63.20;99706.06;6117422;28;20237;-54
2020/12/12 06:26:46;;;;;;;54.40;33.63;;;;;;;5.08;62.97;99713.75;6098391;29;20232;-56
2020/12/12 06:30:11;;;;;;;55.13;35.30;;;;;;;5.17;62.91;99707.66;6088501;29;20241;-57
2020/12/12 06:33:47;;;;;;;58.10;37.40;;;;;;;5.13;62.87;99711.97;6097099;29;20240;-56
2020/12/12 06:37:23;;;;;;;56.63;35.03;;;;;;;5.28;62.47;99714.50;6101754;29;20616;-55
2020/12/12 06:40:44;;;;;;;60.50;35.53;;;;;;;5.28;62.35;99716.22;6117996;28;20235;-57
2020/12/12 06:44:05;;;;;;;50.63;34.00;;;;;;;5.24;62.42;99730.88;6123380;28;20231;-56
2020/12/12 06:47:37;;;;;;;54.97;35.93;;;;;;;5.39;61.75;99729.94;6126646;28;20260;-57
2020/12/12 06:50:59;;;;;;;52.53;32.40;;;;;;;5.44;61.94;99728.16;6109104;28;20228;-55
2020/12/12 06:54:20;;;;;;;54.90;35.77;;;;;;;5.53;61.42;99729.84;6114019;28;20743;-58
2020/12/12 06:57:42;;;;;;;52.43;34.77;;;;;;;5.21;62.80;99733.44;6124126;28;20243;-56
2020/12/12 07:01:28;;;;;;;57.08;37.97;;;;;;;5.16;62.84;99730.06;6100816;29;20739;-54
2020/12/12 07:04:49;;;;;;;56.53;36.03;;;;;;;5.13;63.17;99722.31;6101944;29;20232;-56
2020/12/12 07:08:11;;;;;;;55.57;34.40;;;;;;;5.30;62.89;99720.50;6112678;28;20228;-56
2020/12/12 07:11:32;;;;;;;52.33;34.90;;;;;;;5.41;61.76;99732.50;6124009;28;20228;-58
2020/12/12 07:14:52;;;;;;;53.93;34.57;;;;;;;5.19;62.42;99742.91;6113751;28;20328;-56
2020/12/12 07:18:13;;;;;;;60.00;37.07;;;;;;;5.13;63.30;99740.38;6102049;29;20232;-57
2020/12/12 07:21:38;;;;;;;60.67;35.83;;;;;;;5.12;63.45;99741.25;6107665;28;20236;-56
2020/12/12 07:24:59;;;;;;;61.57;37.27;;;;;;;5.11;62.87;99748.13;6109316;28;20228;-57
2020/12/12 07:28:20;;;;;;;55.07;36.03;;;;;;;5.06;63.17;99754.16;6124914;28;20236;-57
2020/12/12 07:31:42;;;;;;;59.33;39.70;;;;;;;5.23;62.90;99760.09;6125055;28;20228;-57
2020/12/12 07:35:03;;;;;;;60.67;37.27;;;;;;;5.03;63.29;99759.34;6118295;28;20244;-55
2020/12/12 07:38:24;;;;;;;53.50;36.00;;;;;;;5.29;62.33;99764.38;6117479;28;20235;-58
2020/12/12 07:41:45;;;;;;;59.40;38.80;;;;;;;5.21;62.82;99767.00;6114364;28;20232;-54
2020/12/12 07:45:17;;;;;;;60.67;36.63;;;;;;;5.25;62.62;99770.44;6124684;28;20236;-57
2020/12/12 07:48:38;;;;;;;59.23;37.10;;;;;;;5.45;62.29;99780.69;6116651;28;20799;-58
2020/12/12 07:52:00;;;;;;;63.13;39.97;;;;;;;5.50;61.88;99778.94;6112537;28;20232;-57
2020/12/12 07:55:21;;;;;;;58.30;36.43;;;;;;;5.48;62.02;99786.69;6124467;28;20630;-55
2020/12/12 07:58:42;;;;;;;65.97;40.93;;;;;;;5.58;62.24;99791.81;6109815;28;20236;-54
2020/12/12 08:02:04;;;;;;;60.03;37.87;;;;;;;5.47;62.04;99789.28;6100007;29;20232;-56
2020/12/12 08:05:25;;;;;;;53.47;33.63;;;;;;;5.36;62.74;99789.34;6108044;28;20236;-56
2020/12/12 08:08:54;;;;;;;56.23;32.27;;;;;;;5.60;61.87;99790.91;6110625;28;20228;-57
2020/12/12 08:12:28;;;;;;;53.07;36.83;;;;;;;5.72;61.83;99790.03;6122860;28;20634;-57
2020/12/12 08:15:59;;;;;;;58.67;35.70;;;;;;;5.70;61.67;99807.25;6105612;28;20239;-54
2020/12/12 08:19:20;;;;;;;59.50;35.50;;;;;;;5.74;61.51;99808.97;6106360;28;20311;-58
2020/12/12 08:22:40;;;;;;;58.10;35.93;;;;;;;5.78;61.12;99810.66;6114451;28;20231;-55
2020/12/12 08:26:01;;;;;;;60.90;37.73;;;;;;;5.49;61.85;99810.81;6123019;28;20235;-57
2020/12/12 08:29:21;;;;;;;60.13;36.97;;;;;;;5.50;61.98;99809.91;6123142;28;20243;-56
2020/12/12 08:32:46;;;;;;;60.03;37.57;;;;;;;5.46;62.23;99819.41;6117425;28;20232;-53
2020/12/12 08:36:11;;;;;;;62.63;40.23;;;;;;;5.61;61.88;99815.91;6123934;28;20540;-57
2020/12/12 08:39:32;;;;;;;58.67;38.70;;;;;;;5.40;62.38;99824.59;6123343;28;20235;-57
2020/12/12 08:43:06;;;;;;;63.60;38.47;;;;;;;5.55;62.43;99828.00;6121917;28;20239;-57
2020/12/12 08:46:27;;;;;;;62.70;37.43;;;;;;;5.42;62.19;99817.69;6123299;28;20328;-56
2020/12/12 08:49:55;;;;;;;52.63;33.37;;;;;;;5.59;62.24;99824.53;6114537;29;20232;-57
2020/12/12 08:53:21;;;;;;;59.47;36.37;;;;;;;5.31;63.17;99827.19;6097956;29;20236;-53
2020/12/12 08:56:41;;;;;;;58.23;34.20;;;;;;;5.59;62.30;99824.53;6112961;28;20272;-57
2020/12/12 09:00:04;;;;;;;55.83;35.03;;;;;;;5.57;62.02;99832.28;6100867;28;20244;-56
2020/12/12 09:03:24;;;;;;;61.67;39.27;;;;;;;5.43;62.54;99824.59;6100493;29;20521;-56
2020/12/12 09:06:50;;;;;;;60.90;38.67;;;;;;;5.32;63.23;99836.69;6116204;28;20229;-57
2020/12/12 09:10:13;;;;;;;53.90;37.50;;;;;;;5.63;62.28;99826.22;6099514;29;20233;-57
2020/12/12 09:13:33;;;;;;;57.10;35.37;;;;;;;5.50;62.06;99835.75;6098445;29;20232;-54
2020/12/12 09:16:55;;;;;;;56.37;35.87;;;;;;;5.61;62.04;99844.31;6111719;28;20285;-57
2020/12/12 09:20:15;;;;;;;59.37;35.23;;;;;;;5.54;62.34;99845.19;6122407;28;20240;-57
2020/12/12 09:23:36;;;;;;;53.10;35.80;;;;;;;5.18;63.35;99854.78;6107259;28;20236;-54
2020/12/12 09:26:58;;;;;;;54.77;32.70;;;;;;;5.52;62.65;99845.22;6122209;28;20235;-57
2020/12/12 09:30:18;;;;;;;59.63;37.17;;;;;;;5.63;62.06;99847.75;6118824;28;20330;-56
2020/12/12 09:33:39;;;;;;;51.13;34.67;;;;;;;5.66;62.13;99852.91;6113672;28;20275;-57
2020/12/12 09:37:00;;;;;;;52.33;34.17;;;;;;;5.45;62.80;99860.75;6121980;28;20603;-54
2020/12/12 09:40:21;;;;;;;50.80;33.53;;;;;;;5.55;62.41;99854.69;6122693;28;20323;-57
2020/12/12 09:43:41;;;;;;;52.17;34.67;;;;;;;5.54;61.92;99860.69;6101232;28;20342;-56
2020/12/12 09:47:02;;;;;;;53.47;34.70;;;;;;;5.30;63.18;99870.25;6111647;28;20236;-57
2020/12/12 09:50:33;;;;;;;52.60;35.60;;;;;;;5.24;63.30;99872.00;6118425;28;20240;-58
2020/12/12 09:53:54;;;;;;;55.67;36.50;;;;;;;5.48;62.53;99874.47;6104193;28;20235;-56
2020/12/12 09:57:15;;;;;;;55.13;34.17;;;;;;;5.78;61.95;99872.66;6121846;28;20239;-56
2020/12/12 10:00:37;;;;;;;54.27;37.20;;;;;;;5.59;62.14;99879.63;6119025;28;20606;-55
2020/12/12 10:03:58;;;;;;;49.50;35.60;;;;;;;5.49;62.18;99880.53;6121695;28;20646;-56
2020/12/12 10:07:18;;;;;;;57.57;35.57;;;;;;;5.66;61.91;99868.41;6119865;28;20584;-57
2020/12/12 10:10:39;;;;;;;53.97;34.90;;;;;;;5.57;61.91;99877.94;6101388;28;20231;-57
2020/12/12 10:14:00;;;;;;;55.87;35.47;;;;;;;5.55;61.97;99874.50;6117391;28;20229;-56
2020/12/12 10:17:20;;;;;;;49.27;35.57;;;;;;;5.67;61.99;99880.44;6098303;29;20232;-56
2020/12/12 10:20:41;;;;;;;55.00;36.40;;;;;;;5.60;62.40;99883.91;6120852;28;20227;-57
2020/12/12 10:24:02;;;;;;;53.13;34.43;;;;;;;5.71;61.93;99874.41;6118701;28;20240;-58
2020/12/12 10:27:22;;;;;;;49.40;32.07;;;;;;;5.70;62.00;99880.44;6121168;28;20649;-56
2020/12/12 10:30:43;;;;;;;53.80;34.50;;;;;;;5.67;61.45;99889.94;6121251;28;20228;-56
2020/12/12 10:34:03;;;;;;;59.40;37.70;;;;;;;5.45;62.41;99889.16;6117384;28;20236;-58
2020/12/12 10:37:24;;;;;;;56.97;37.17;;;;;;;5.45;62.39;99889.16;6113393;28;20235;-56
2020/12/12 10:40:47;;;;;;;49.20;33.63;;;;;;;5.46;62.59;99893.44;6107047;29;20236;-57
2020/12/12 10:44:08;;;;;;;52.60;36.53;;;;;;;5.67;62.08;99895.09;6103339;29;20232;-56
2020/12/12 10:47:29;;;;;;;50.87;35.33;;;;;;;5.55;62.36;99901.16;6092182;29;20899;-58
2020/12/12 10:50:49;;;;;;;47.50;32.23;;;;;;;5.58;62.49;99903.72;6119057;28;20420;-55
2020/12/12 10:54:09;;;;;;;53.83;34.20;;;;;;;5.70;62.09;99910.59;6111004;28;20962;-56
2020/12/12 10:57:30;;;;;;;55.67;35.03;;;;;;;5.44;62.31;99913.25;6092073;29;20236;-55
2020/12/12 11:00:52;;;;;;;46.50;31.53;;;;;;;5.59;62.67;99908.03;6112282;28;20236;-58
2020/12/12 11:04:13;;;;;;;56.47;33.33;;;;;;;5.35;62.79;99908.97;6103081;29;20239;-58
2020/12/12 11:07:33;;;;;;;48.57;33.13;;;;;;;5.62;62.28;99915.78;6092126;29;20700;-58
2020/12/12 11:10:55;;;;;;;47.07;32.57;;;;;;;5.56;62.19;99914.94;6105119;29;20301;-56
2020/12/12 11:14:16;;;;;;;52.67;33.93;;;;;;;5.38;62.34;99908.09;6104371;29;20247;-58
2020/12/12 11:17:36;;;;;;;50.47;34.70;;;;;;;5.62;61.98;99917.50;6092416;29;20239;-55
2020/12/12 11:20:58;;;;;;;49.53;31.63;;;;;;;5.47;62.50;99914.09;6104910;29;20237;-58
2020/12/12 11:24:18;;;;;;;49.03;34.57;;;;;;;5.48;62.49;99917.53;6127845;28;20322;-56
2020/12/12 11:27:39;;;;;;;44.30;32.17;;;;;;;5.59;62.16;99922.69;6119742;28;20642;-53
2020/12/12 11:31:00;;;;;;;53.10;36.43;;;;;;;5.86;61.78;99920.00;6131584;28;20232;-52
2020/12/12 11:34:27;;;;;;;48.10;32.60;;;;;;;5.58;61.64;99926.13;6107797;29;20929;-57
2020/12/12 11:38:10;;;;;;;57.57;35.50;;;;;;;5.67;61.61;99918.34;6117330;28;20565;-56
2020/12/12 11:48:49;;;;;;;50.43;32.70;;;;;;;5.80;61.78;99927.78;6128792;28;20227;-53
2020/12/12 11:52:10;;;;;;;52.23;34.80;;;;;;;5.75;61.78;99926.06;6100906;28;20610;-56
2020/12/12 11:55:31;;;;;;;46.13;32.37;;;;;;;5.70;61.74;99939.88;6132399;28;20232;-58
2020/12/12 11:58:52;;;;;;;42.40;29.43;;;;;;;5.76;62.13;99940.69;6124267;28;20236;-57
2020/12/12 12:02:13;;;;;;;47.63;33.37;;;;;;;5.65;62.20;99936.44;6087500;28;20315;-53
2020/12/12 12:05:33;;;;;;;49.17;33.93;;;;;;;5.84;62.04;99934.66;6135621;28;20315;-56
2020/12/12 12:09:19;;;;;;;46.67;31.30;;;;;;;6.13;61.03;99920.78;6112106;28;20246;-53
2020/12/12 12:12:41;;;;;;;43.87;30.90;;;;;;;6.09;61.38;99930.25;6119033;28;20227;-59
2020/12/12 12:16:02;;;;;;;39.63;30.50;;;;;;;6.19;60.79;99935.41;6111634;28;20237;-54
2020/12/12 12:19:22;;;;;;;44.37;31.33;;;;;;;6.38;60.53;99949.94;6129211;28;20258;-57
2020/12/12 12:22:43;;;;;;;50.17;32.00;;;;;;;6.39;60.35;99940.44;6119727;28;20239;-58
2020/12/12 12:26:03;;;;;;;45.87;31.37;;;;;;;6.42;60.36;99943.88;6123087;28;20227;-56
2020/12/12 12:29:24;;;;;;;42.83;32.27;;;;;;;6.34;60.75;99952.53;6128961;28;20244;-54
2020/12/12 12:32:45;;;;;;;48.30;32.57;;;;;;;6.21;61.01;99954.34;6116496;28;20334;-56
2020/12/12 12:36:05;;;;;;;44.53;31.73;;;;;;;5.85;62.26;99956.16;6130442;28;20228;-57
2020/12/12 12:39:26;;;;;;;43.13;32.83;;;;;;;5.95;62.28;99963.03;6129545;28;20239;-56
2020/12/12 12:42:46;;;;;;;45.17;29.13;;;;;;;6.14;61.76;99955.22;6095324;29;20643;-57
2020/12/12 12:46:09;;;;;;;43.53;31.40;;;;;;;6.36;61.42;99954.25;6106117;29;20332;-55
2020/12/12 12:49:30;;;;;;;40.47;29.33;;;;;;;6.36;61.47;99962.03;6117772;28;20251;-55
2020/12/12 12:52:50;;;;;;;39.80;29.60;;;;;;;6.35;61.47;99962.03;6119835;28;20429;-53
2020/12/12 12:56:11;;;;;;;41.20;28.97;;;;;;;6.37;61.30;99961.13;6129313;28;20632;-58
2020/12/12 12:59:32;;;;;;;41.87;31.30;;;;;;;6.21;62.26;99967.28;6106823;29;20678;-55
2020/12/12 13:02:53;;;;;;;54.03;38.60;;;;;;;6.37;61.71;99963.72;6119141;28;20231;-57
2020/12/12 13:06:18;;;;;;;52.70;33.37;;;;;;;6.32;61.95;99973.25;6117505;28;20227;-54
2020/12/12 13:09:38;;;;;;;47.27;32.40;;;;;;;6.38;61.74;99972.34;6128448;28;20866;-56
2020/12/12 13:12:59;;;;;;;44.57;31.20;;;;;;;6.41;61.70;99975.78;6120440;28;20242;-57
2020/12/12 13:16:23;;;;;;;45.43;33.53;;;;;;;6.29;62.22;99971.53;6106044;28;20476;-55
2020/12/12 13:19:47;;;;;;;43.67;32.07;;;;;;;6.48;61.44;99974.88;6110991;28;20271;-56
2020/12/12 13:23:08;;;;;;;44.37;29.70;;;;;;;6.45;61.99;99974.88;6105112;28;20239;-57
2020/12/12 13:26:29;;;;;;;46.83;31.73;;;;;;;6.21;62.65;99970.72;6102718;29;20236;-56
2020/12/12 13:33:23;;;;;;;48.83;33.17;;;;;;;6.16;62.87;99980.19;6118936;28;20223;-55
2020/12/12 13:36:45;;;;;;;41.90;28.73;;;;;;;6.42;62.28;99987.00;6124210;28;20953;-58
2020/12/12 13:40:06;;;;;;;41.87;31.93;;;;;;;6.09;62.89;99987.13;6121016;28;20240;-58
2020/12/12 13:43:26;;;;;;;46.63;31.73;;;;;;;5.91;64.11;99992.31;6121098;28;20232;-57
2020/12/12 13:46:46;;;;;;;41.27;30.30;;;;;;;6.17;63.24;99986.25;6113476;28;20613;-53
2020/12/12 13:50:09;;;;;;;44.20;30.40;;;;;;;6.40;62.41;99991.31;6121952;28;20270;-56
2020/12/12 13:53:31;;;;;;;47.50;31.63;;;;;;;5.99;63.56;99995.78;6119970;28;20235;-55
2020/12/12 13:56:52;;;;;;;43.70;32.40;;;;;;;6.25;62.70;100002.59;6098813;29;20236;-57
2020/12/12 14:00:12;;;;;;;42.60;32.23;;;;;;;6.46;62.34;99994.72;6101982;28;20303;-57
2020/12/12 14:03:32;;;;;;;42.33;31.00;;;;;;;6.38;62.91;100009.44;6116447;28;20320;-56
2020/12/12 14:06:57;;;;;;;43.00;32.53;;;;;;;6.54;61.86;100004.19;6121964;28;20605;-52
2020/12/12 14:10:29;;;;;;;41.20;29.10;;;;;;;6.37;62.40;100015.44;6114516;28;20244;-55
2020/12/12 14:24:41;;;;;;;43.57;30.10;;;;;;;6.30;62.72;100027.56;6111465;28;20323;-55
2020/12/12 14:31:41;;;;;;;38.70;27.93;;;;;;;6.01;63.53;100025.09;6118630;28;20228;-54
2020/12/12 14:35:01;;;;;;;39.77;29.20;;;;;;;5.97;63.80;100031.13;6110684;28;20244;-57
2020/12/12 14:38:24;;;;;;;47.60;30.60;;;;;;;5.97;63.41;100038.88;6121344;28;20502;-58
2020/12/12 14:41:45;;;;;;;39.57;28.70;;;;;;;5.90;63.65;100040.56;6105960;28;20693;-58
2020/12/12 14:45:13;;;;;;;38.90;28.87;;;;;;;6.01;63.44;100050.94;6119032;28;20518;-51
2020/12/12 14:48:37;;;;;;;41.63;29.80;;;;;;;5.60;64.54;100050.94;6108347;28;20660;-55
2020/12/12 14:51:58;;;;;;;41.93;30.73;;;;;;;5.65;64.70;100052.69;6117707;28;20240;-56
2020/12/12 14:55:18;;;;;;;39.40;28.80;;;;;;;5.88;63.77;100051.78;6109657;29;20312;-52
2020/12/12 14:58:39;;;;;;;42.13;31.23;;;;;;;6.11;63.23;100062.09;6112428;28;20235;-56
2020/12/12 15:02:01;;;;;;;40.45;33.05;;;;;;;6.11;63.02;100060.38;6122515;28;20742;-55
2020/12/12 15:05:21;;;;;;;42.93;31.67;;;;;;;6.27;62.84;100068.09;6118034;28;20236;-57
2020/12/12 15:08:42;;;;;;;38.60;30.20;;;;;;;6.20;62.44;100071.53;6101625;29;20228;-54
2020/12/12 15:12:02;;;;;;;37.03;28.70;;;;;;;6.18;62.98;100081.88;6091670;29;20332;-56
2020/12/12 15:15:23;;;;;;;32.33;25.27;;;;;;;6.26;62.86;100089.63;6114709;28;20231;-56
2020/12/12 15:18:44;;;;;;;37.93;28.80;;;;;;;6.20;62.91;100097.41;6124941;28;20235;-57
2020/12/12 15:22:05;;;;;;;36.60;26.87;;;;;;;6.11;62.95;100104.31;6123211;28;20227;-54
2020/12/12 15:25:25;;;;;;;34.60;26.93;;;;;;;6.26;62.76;100106.00;6123485;28;20232;-56
2020/12/12 15:28:46;;;;;;;39.23;29.50;;;;;;;6.07;63.20;100114.69;6124447;28;20236;-58
2020/12/12 15:32:10;;;;;;;38.77;29.67;;;;;;;6.33;62.64;100121.50;6121578;28;20630;-57
2020/12/12 15:35:32;;;;;;;34.70;27.00;;;;;;;6.27;62.98;100122.38;6124888;28;20604;-53
2020/12/12 15:38:53;;;;;;;39.53;28.27;;;;;;;5.98;63.41;100122.44;6104330;29;20229;-57
2020/12/12 15:42:13;;;;;;;49.90;37.70;;;;;;;6.17;63.15;100125.88;6107842;28;20252;-51
2020/12/12 15:45:33;;;;;;;51.90;38.93;;;;;;;6.26;62.88;100123.22;6117123;28;20259;-57
2020/12/12 15:48:55;;;;;;;53.60;38.40;;;;;;;6.13;63.39;100129.28;6101197;29;20256;-54
2020/12/12 15:52:16;;;;;;;50.43;37.77;;;;;;;6.29;62.53;100133.59;6121509;28;20288;-56
2020/12/12 15:55:37;;;;;;;43.63;31.47;;;;;;;6.18;62.97;100131.00;6094314;29;20228;-57
2020/12/12 15:58:57;;;;;;;43.77;29.97;;;;;;;6.26;62.78;100142.22;6123611;28;20235;-56
2020/12/12 16:02:18;;;;;;;45.37;33.23;;;;;;;6.44;62.18;100143.88;6110601;28;20343;-56